Time;durP1;ratioP1;P1;durP2;ratioP2;P2;SDS_P1;SDS_P2;PMS_P1;PMS_P2;Temp;Humidity;BMP_temperature;BMP_pressure;BME280_temperature;BME280_humidity;BME280_pressure;Samples;Min_cycle;Max_cycle;Signal;HPM_P1;HPM_P2
2022/01/22 00:01:26;;;;;;;37.00;14.50;;;;;;;-1.82;73.38;93239.03;5017475;28;20068;-89
2022/01/22 00:03:59;;;;;;;36.70;14.50;;;;;;;-1.54;73.09;93264.63;5034165;28;20048;-88
2022/01/22 00:07:10;;;;;;;38.42;13.07;;;;;;;-1.77;72.74;93226.44;5036521;28;20033;-87
2022/01/22 00:10:02;;;;;;;;;;;;;;;;;;;;;
2022/01/22 00:15:25;;;;;;;34.70;13.23;;;;;;;-2.17;72.30;93245.00;5033907;28;20060;-88
2022/01/22 00:17:53;;;;;;;35.47;14.35;;;;;;;-2.15;73.04;93244.81;5018022;28;20036;-88
2022/01/22 00:20:28;;;;;;;43.03;13.32;;;;;;;-2.20;72.63;93239.47;5033635;28;20032;-89
2022/01/22 00:23:06;;;;;;;42.15;15.43;;;;;;;-2.25;71.73;93234.09;5031114;28;20124;-88
2022/01/22 00:25:41;;;;;;;37.95;14.27;;;;;;;-2.19;71.70;93259.00;5014881;28;20088;-88
2022/01/22 00:28:19;;;;;;;;;;;;;;;;;;;;;
2022/01/22 00:31:02;;;;;;;40.92;14.10;;;;;;;-2.24;71.42;93271.63;5022266;28;20033;-88
2022/01/22 00:33:35;;;;;;;;;;;;;;;-2.02;71.15;93305.69;5034342;28;20029;-88
2022/01/22 00:36:06;;;;;;;27.02;11.43;;;;;;;-2.25;70.71;93275.13;5034450;28;19923;-88
2022/01/22 00:38:34;;;;;;;37.30;12.48;;;;;;;-2.29;70.61;93274.75;5033835;28;20124;-88
2022/01/22 00:41:09;;;;;;;36.22;12.00;;;;;;;-2.07;69.66;93313.94;5017346;28;20036;-88
2022/01/22 00:43:54;;;;;;;29.08;12.18;;;;;;;-2.42;71.10;93243.88;5018461;28;20037;-87
2022/01/22 00:46:29;;;;;;;30.75;11.25;;;;;;;-2.16;70.85;93289.41;5015877;28;20033;-87
2022/01/22 00:49:13;;;;;;;34.72;12.50;;;;;;;-2.42;69.85;93249.81;5017512;28;20040;-88
2022/01/22 00:51:46;;;;;;;40.13;12.68;;;;;;;-2.19;70.38;93284.66;5035712;28;20045;-88
2022/01/22 00:54:17;;;;;;;35.75;13.18;;;;;;;-2.36;70.76;93264.44;5033394;28;20036;-88
2022/01/22 00:57:09;;;;;;;33.00;13.65;;;;;;;-2.38;70.54;93263.06;5050624;28;20048;-88
2022/01/22 00:59:42;;;;;;;31.85;13.00;;;;;;;-2.55;69.92;93242.03;5018587;28;20429;-87
2022/01/22 01:02:23;;;;;;;38.13;13.35;;;;;;;-2.60;70.31;93239.22;5022215;28;20049;-87
2022/01/22 01:04:51;;;;;;;42.22;14.27;;;;;;;-2.69;70.40;93243.72;5034745;28;20041;-88
2022/01/22 01:07:17;;;;;;;40.95;11.95;;;;;;;-2.82;70.55;93230.78;5020498;28;20041;-88
2022/01/22 01:09:48;;;;;;;36.70;13.43;;;;;;;-2.37;70.90;93306.44;5037362;28;20048;-88
2022/01/22 01:12:21;;;;;;;33.58;13.85;;;;;;;-2.64;71.47;93261.09;5036891;28;20477;-88
2022/01/22 01:15:10;;;;;;;31.85;12.18;;;;;;;-2.87;71.01;93226.22;5017699;28;20092;-87
2022/01/22 01:18:03;;;;;;;28.98;11.23;;;;;;;-2.88;71.03;93226.41;5002198;28;20049;-88
2022/01/22 01:32:27;;;;;;;34.85;12.85;;;;;;;-2.69;71.96;93299.31;5023715;28;20045;-87
2022/01/22 01:34:57;;;;;;;38.08;14.18;;;;;;;-2.92;72.36;93267.00;5037335;28;20119;-86
2022/01/22 01:37:26;;;;;;;37.38;12.77;;;;;;;-3.03;71.93;93260.59;5036292;28;20029;-88
2022/01/22 01:40:03;;;;;;;26.25;11.60;;;;;;;-3.08;71.90;93254.44;5021185;28;20037;-87
2022/01/22 01:42:49;;;;;;;37.05;12.25;;;;;;;-2.77;72.00;93295.91;5036283;28;20037;-88
2022/01/22 01:45:23;;;;;;;31.80;12.60;;;;;;;-3.07;71.21;93267.06;5018844;28;20381;-88
2022/01/22 01:48:04;;;;;;;38.00;13.40;;;;;;;-3.21;70.87;93250.00;5033358;28;20041;-89
2022/01/22 01:50:39;;;;;;;37.17;13.27;;;;;;;-2.83;71.08;93309.44;5036686;28;20547;-88
2022/01/22 01:57:23;;;;;;;37.05;14.18;;;;;;;-3.19;70.50;93259.06;5037211;28;20740;-87
2022/01/22 02:01:48;;;;;;;37.13;13.55;;;;;;;-3.24;70.82;93246.03;5036110;28;20131;-88
2022/01/22 02:04:26;;;;;;;;;;;;;;;;;;;;;
2022/01/22 02:06:56;;;;;;;40.30;15.05;;;;;;;-2.97;69.68;93277.78;5036577;28;20603;-87
2022/01/22 02:09:36;;;;;;;36.40;13.90;;;;;;;-2.92;69.08;93287.50;5019535;28;20079;-88
2022/01/22 02:12:20;;;;;;;;;;;;;;;;;;;;;
2022/01/22 02:24:03;;;;;;;39.03;15.05;;;;;;;-3.11;75.15;93219.72;5016643;28;20133;-88
2022/01/22 02:26:31;;;;;;;40.03;16.00;;;;;;;-3.21;75.33;93207.25;5013813;28;20048;-88
2022/01/22 02:28:59;;;;;;;41.85;15.40;;;;;;;-2.87;74.72;93256.97;5032501;28;20120;-87
2022/01/22 02:35:00;;;;;;;35.13;13.90;;;;;;;-3.14;78.24;93215.75;4989538;28;20095;-87
2022/01/22 02:37:36;;;;;;;47.28;14.38;;;;;;;-3.02;77.70;93212.72;5031394;28;20033;-87
2022/01/22 02:40:19;;;;;;;44.65;14.85;;;;;;;-2.75;77.55;93249.56;5035836;28;20033;-87
2022/01/22 02:43:02;;;;;;;45.92;16.55;;;;;;;-2.94;76.10;93235.63;5035404;28;20041;-87
2022/01/22 02:45:47;;;;;;;42.10;15.43;;;;;;;-3.05;76.26;93213.88;5022515;28;20520;-88
2022/01/22 02:48:32;;;;;;;;;;;;;;;;;;;;;
2022/01/22 02:51:05;;;;;;;37.25;16.50;;;;;;;-3.19;76.07;93187.38;5035427;28;20036;-88
2022/01/22 02:53:53;;;;;;;50.05;17.05;;;;;;;-3.20;75.72;93190.09;5035526;28;20036;-88
2022/01/22 02:56:34;;;;;;;38.55;16.63;;;;;;;-2.66;76.86;93273.28;5019800;28;20028;-88
2022/01/22 02:59:27;;;;;;;40.22;15.30;;;;;;;-3.17;75.69;93205.91;5004918;28;20132;-88
2022/01/22 03:01:59;;;;;;;39.25;15.18;;;;;;;-3.24;75.41;93202.50;5019303;28;20052;-87
2022/01/22 03:04:35;;;;;;;45.53;15.95;;;;;;;-3.00;74.58;93242.28;5035513;28;20502;-88
2022/01/22 03:07:13;;;;;;;47.00;15.82;;;;;;;-3.19;74.79;93218.09;5028202;28;20056;-88
2022/01/22 03:09:51;;;;;;;38.72;13.55;;;;;;;-3.42;74.87;93192.69;4999576;28;20168;-88
2022/01/22 03:29:05;;;;;;;39.75;14.18;;;;;;;-2.95;77.38;93246.84;5034713;28;20519;-87
2022/01/22 03:31:32;;;;;;;51.63;16.67;;;;;;;-3.20;76.56;93201.16;5019983;28;20137;-87
2022/01/22 03:34:24;;;;;;;45.65;16.40;;;;;;;-2.92;75.18;93249.06;5035024;28;20677;-87
2022/01/22 03:36:59;;;;;;;39.60;15.05;;;;;;;-3.11;74.76;93218.94;5017263;28;20045;-88
2022/01/22 03:39:37;;;;;;;;;;;;;;;;;;;;;
2022/01/22 03:42:06;;;;;;;46.20;16.38;;;;;;;-2.91;76.57;93221.66;5018321;28;20094;-88
2022/01/22 03:44:43;;;;;;;42.47;15.25;;;;;;;-2.96;75.40;93201.72;5034237;28;20029;-88
2022/01/22 03:47:08;;;;;;;42.58;15.48;;;;;;;-2.93;75.37;93216.72;5034726;28;20044;-87
2022/01/22 03:49:42;;;;;;;45.80;15.55;;;;;;;-3.07;74.54;93208.13;5034137;28;20029;-87
2022/01/22 03:52:17;;;;;;;43.72;15.00;;;;;;;-3.14;74.30;93194.50;4999556;28;20041;-87
2022/01/22 03:54:44;;;;;;;44.22;14.27;;;;;;;-2.80;74.93;93196.31;4999570;28;20088;-87
2022/01/22 03:57:26;;;;;;;45.33;15.40;;;;;;;-3.03;74.07;93154.78;5015178;28;20033;-88
2022/01/22 04:00:09;;;;;;;33.42;13.40;;;;;;;-3.05;73.13;93167.75;5016522;28;20045;-87
2022/01/22 04:08:32;;;;;;;32.10;12.65;;;;;;;-3.12;72.98;93149.00;5034081;28;20501;-87
2022/01/22 04:11:02;;;;;;;30.77;12.57;;;;;;;-3.09;71.96;93160.63;5017281;28;20040;-88
2022/01/22 04:13:36;;;;;;;42.42;13.55;;;;;;;-2.65;71.35;93228.75;5034590;28;20033;-90
2022/01/22 04:16:07;;;;;;;;;;;;;;;-2.66;71.68;93222.81;5018961;28;20052;-88
2022/01/22 04:27:13;;;;;;;17.88;7.00;;;;;;;-2.35;67.68;93186.50;5034313;28;20103;-88
2022/01/22 04:29:43;;;;;;;24.17;9.23;;;;;;;-2.27;66.60;93200.16;5002801;28;20045;-88
2022/01/22 04:32:23;;;;;;;19.40;7.75;;;;;;;-2.32;66.41;93204.09;5018834;28;20022;-89
2022/01/22 04:34:59;;;;;;;;;;;;;;;;;;;;;
2022/01/22 04:37:40;;;;;;;20.02;7.60;;;;;;;-1.77;61.02;93149.44;5038360;28;20037;-88
2022/01/22 04:40:16;;;;;;;18.45;7.25;;;;;;;-1.64;62.11;93187.16;5022606;28;20057;-89
2022/01/22 04:42:48;;;;;;;17.17;6.78;;;;;;;-1.60;62.02;93212.28;5021644;28;20044;-88
2022/01/22 04:57:15;;;;;;;13.32;4.55;;;;;;;-1.96;60.65;93179.16;5047964;28;20071;-88
2022/01/22 05:00:09;;;;;;;12.35;4.63;;;;;;;-1.71;59.21;93205.91;5039129;28;20091;-88
2022/01/22 05:03:03;;;;;;;16.10;5.72;;;;;;;-1.82;59.38;93182.56;5042485;28;20080;-88
2022/01/22 05:05:55;;;;;;;17.77;5.25;;;;;;;-1.67;59.15;93183.19;5054065;28;20128;-89
2022/01/22 05:08:36;;;;;;;26.90;10.52;;;;;;;-1.29;61.31;93190.38;5030261;28;20071;-88
2022/01/22 05:11:21;;;;;;;24.38;8.45;;;;;;;-1.17;62.57;93150.28;5025895;28;20056;-88
2022/01/22 05:14:04;;;;;;;26.80;9.63;;;;;;;-1.31;61.93;93158.97;5037659;28;20110;-88
2022/01/22 05:16:40;;;;;;;23.90;8.82;;;;;;;-1.65;61.46;93147.84;5022472;28;20037;-90
2022/01/22 05:19:24;;;;;;;25.40;9.48;;;;;;;-1.19;60.67;93188.22;5021416;28;20040;-88
2022/01/22 05:22:14;;;;;;;21.92;8.95;;;;;;;-1.42;60.45;93156.97;5021205;28;20044;-88
2022/01/22 05:24:52;;;;;;;18.33;6.75;;;;;;;-1.49;59.10;93160.34;5022078;28;20363;-89
2022/01/22 05:27:48;;;;;;;7.25;3.00;;;;;;;-0.88;52.23;93143.94;5039415;28;20041;-88
2022/01/22 05:37:25;;;;;;;3.45;1.42;;;;;;;-0.37;50.21;93186.16;5045714;28;20043;-89
2022/01/22 05:40:02;;;;;;;2.08;1.20;;;;;;;0.05;49.28;93209.03;5056493;28;20040;-89
2022/01/22 05:45:30;;;;;;;1.88;1.17;;;;;;;0.64;47.08;93207.94;5022521;28;20128;-88
2022/01/22 05:48:19;;;;;;;;;;;;;;;;;;;;;
2022/01/22 05:51:00;;;;;;;2.72;1.50;;;;;;;0.52;46.08;93174.31;5054697;28;20043;-88
2022/01/22 05:59:38;;;;;;;;;;;;;;;1.38;44.47;93255.44;5023325;28;20052;-88
2022/01/22 06:02:30;;;;;;;1.27;0.90;;;;;;;0.96;44.22;93190.66;5047005;28;19917;-88
2022/01/22 06:05:05;;;;;;;2.65;1.20;;;;;;;1.11;44.87;93220.53;5020665;28;20041;-89
2022/01/22 06:07:44;;;;;;;1.92;1.00;;;;;;;1.11;44.97;93207.66;5035800;28;20045;-88
2022/01/22 06:10:25;;;;;;;3.58;1.02;;;;;;;0.91;44.14;93177.63;5035025;28;20048;-89
2022/01/22 06:16:01;;;;;;;1.98;1.00;;;;;;;1.32;42.52;93176.31;5001986;28;20034;-89
2022/01/22 06:18:48;;;;;;;2.40;1.05;;;;;;;1.40;43.57;93211.38;5017403;28;20078;-88
2022/01/22 06:21:26;;;;;;;3.00;1.23;;;;;;;1.49;42.26;93188.66;5000419;28;20044;-89
2022/01/22 06:24:04;;;;;;;2.83;1.20;;;;;;;1.43;42.45;93183.34;5017074;28;20026;-88
2022/01/22 06:26:46;;;;;;;2.33;1.08;;;;;;;1.73;42.29;93220.59;5016181;28;20041;-89
2022/01/22 06:29:19;;;;;;;1.83;1.10;;;;;;;1.42;42.42;93194.69;5002682;28;20499;-89
2022/01/22 06:32:02;;;;;;;1.65;1.00;;;;;;;1.26;42.81;93174.56;5000940;28;20091;-89
2022/01/22 06:34:35;;;;;;;2.88;1.08;;;;;;;1.38;43.07;93200.47;5016332;28;20053;-88
2022/01/22 06:37:50;;;;;;;;;;;;;;;;;;;;;
2022/01/22 06:41:47;;;;;;;3.15;1.27;;;;;;;2.00;41.84;93262.44;4992507;28;20091;-91
2022/01/22 06:56:07;;;;;;;2.55;1.17;;;;;;;2.25;41.39;93252.84;4975291;28;20077;-89
2022/01/22 06:58:59;;;;;;;3.10;1.25;;;;;;;2.26;40.80;93249.25;4962005;28;20053;-91
2022/01/22 07:01:56;;;;;;;3.13;1.17;;;;;;;2.40;41.24;93262.00;4964416;28;20066;-90
2022/01/22 07:04:31;;;;;;;;;;;;;;;2.47;40.86;93260.13;4937197;29;20044;-91
2022/01/22 07:11:25;;;;;;;1.50;1.08;;;;;;;2.55;40.48;93259.84;5016504;28;20096;-90
2022/01/22 07:18:23;;;;;;;1.83;1.08;;;;;;;3.52;38.60;93257.09;5016408;28;20046;-90
2022/01/22 07:20:51;;;;;;;1.02;0.88;;;;;;;5.88;35.23;93252.94;4997975;28;20061;-90
2022/01/22 07:23:31;;;;;;;2.55;1.20;;;;;;;7.19;32.54;93252.22;5006775;28;20034;-91
2022/01/22 07:26:45;;;;;;;2.55;0.95;;;;;;;7.45;31.57;93255.84;5014378;28;20045;-90
2022/01/22 07:29:32;;;;;;;;;;;;;;;;;;;;;
2022/01/22 07:32:56;;;;;;;3.00;0.85;;;;;;;6.01;33.24;93188.47;4999531;28;20038;-91
2022/01/22 07:35:53;;;;;;;1.45;0.90;;;;;;;6.15;32.16;93195.94;4986210;28;20045;-91
2022/01/22 07:38:47;;;;;;;3.05;1.30;;;;;;;6.58;32.44;93220.34;4980650;28;20041;-92
2022/01/22 07:41:30;;;;;;;2.50;1.10;;;;;;;6.68;32.12;93176.22;5009243;28;20372;-91
2022/01/22 07:47:20;;;;;;;1.55;0.90;;;;;;;7.36;31.14;93186.22;4995094;28;20522;-91
2022/01/22 07:49:58;;;;;;;4.25;1.48;;;;;;;7.54;30.97;93209.25;4995502;28;20049;-90
2022/01/22 07:52:41;;;;;;;3.88;1.60;;;;;;;7.80;30.88;93157.34;4983411;28;20048;-91
2022/01/22 07:58:27;;;;;;;5.82;1.85;;;;;;;9.12;29.14;93183.16;4998975;28;20740;-91
2022/01/22 08:02:00;;;;;;;4.05;1.52;;;;;;;9.21;29.07;93196.47;4985738;28;20034;-90
2022/01/22 08:05:37;;;;;;;4.18;1.60;;;;;;;9.89;28.28;93214.50;4992040;28;20073;-91
2022/01/22 08:08:38;;;;;;;5.13;1.70;;;;;;;11.08;27.26;93183.47;4932414;29;20077;-90
2022/01/22 08:11:38;;;;;;;2.75;1.42;;;;;;;13.18;24.84;93173.50;4930648;29;20489;-90
2022/01/22 08:26:34;;;;;;;3.78;1.90;;;;;;;18.29;19.89;93210.16;4995128;28;20086;-90
2022/01/22 09:01:03;;;;;;;8.85;2.47;;;;;;;19.38;16.85;93202.63;4995703;28;20499;-90
2022/01/22 09:03:51;;;;;;;5.60;2.60;;;;;;;16.51;19.46;93215.09;5008096;28;20050;-90
2022/01/22 09:07:08;;;;;;;3.72;1.75;;;;;;;16.68;19.95;93219.66;5011624;28;20132;-90
2022/01/22 09:10:04;;;;;;;3.55;1.40;;;;;;;15.33;20.06;93225.00;4993764;28;20109;-91
2022/01/22 09:12:40;;;;;;;5.05;1.63;;;;;;;14.28;21.87;93226.50;5015767;28;20062;-89
2022/01/22 09:15:57;;;;;;;1.85;1.08;;;;;;;13.92;21.93;93229.75;5012244;28;20077;-90
2022/01/22 09:22:25;;;;;;;2.67;1.00;;;;;;;13.45;22.98;93215.72;5015157;28;20041;-91
2022/01/22 09:29:20;;;;;;;2.13;0.77;;;;;;;14.42;22.78;93221.25;5015156;28;20112;-91
2022/01/22 09:31:47;;;;;;;2.70;1.20;;;;;;;13.82;23.13;93197.53;4998705;28;20056;-90
2022/01/22 09:38:14;;;;;;;2.13;1.40;;;;;;;12.78;23.81;93213.16;5007573;28;20080;-90
2022/01/22 09:41:07;;;;;;;3.55;0.80;;;;;;;12.63;24.02;93229.09;4995427;28;20058;-90
2022/01/22 09:48:14;;;;;;;2.28;1.17;;;;;;;12.20;25.88;93242.94;4959364;28;19975;-90
2022/01/22 09:54:56;;;;;;;2.55;1.15;;;;;;;11.61;26.02;93238.69;4958631;28;20095;-90
2022/01/22 10:08:32;;;;;;;1.98;1.02;;;;;;;12.36;25.88;93248.03;4937680;29;20048;-90
2022/01/22 10:15:15;;;;;;;1.92;1.15;;;;;;;12.44;26.06;93239.56;4977177;28;20057;-90
2022/01/22 10:22:43;;;;;;;1.40;0.95;;;;;;;12.03;26.20;93255.72;4997565;28;20075;-90
2022/01/22 10:45:14;;;;;;;9.77;4.18;;;;;;;11.28;28.77;93267.22;4877163;29;20147;-88
2022/01/22 11:12:35;;;;;;;;;;;;;;;;;;;;;
2022/01/22 11:15:28;;;;;;;5.50;1.50;;;;;;;13.20;25.56;93180.03;4918838;28;20475;-89
2022/01/22 11:18:06;;;;;;;5.75;2.25;;;;;;;12.99;24.02;93166.41;5003337;28;20516;-88
2022/01/22 11:20:44;;;;;;;6.68;2.88;;;;;;;13.19;25.76;93223.16;4997318;28;20040;-90
2022/01/22 11:23:19;;;;;;;13.50;5.45;;;;;;;11.99;27.25;93212.72;4994682;28;20038;-87
2022/01/22 11:25:51;;;;;;;5.70;2.47;;;;;;;12.24;26.61;93165.19;4994632;28;20068;-88
2022/01/22 11:28:32;;;;;;;;;;;;;;;;;;;;;
2022/01/22 13:14:32;;;;;;;1.92;1.08;;;;;;;12.84;24.72;93187.63;4851199;29;20424;-89
2022/01/22 13:20:49;;;;;;;3.05;1.00;;;;;;;13.37;24.62;93124.34;4979265;28;20057;-90
2022/01/22 13:24:14;;;;;;;;;;;;;;;;;;;;;
2022/01/22 13:27:09;;;;;;;;;;;;;;;;;;;;;
2022/01/22 13:30:14;;;;;;;;;;;;;;;;;;;;;
2022/01/22 13:33:06;;;;;;;0.70;0.60;;;;;;;13.90;23.12;93158.19;5010719;28;20041;-90
2022/01/22 13:47:58;;;;;;;0.88;0.60;;;;;;;13.62;23.56;93114.47;5032260;28;20041;-90
2022/01/22 13:51:05;;;;;;;1.30;0.75;;;;;;;13.59;23.69;93113.19;5038948;28;20065;-91
2022/01/22 13:53:47;;;;;;;;;;;;;;;;;;;;;
2022/01/22 13:57:10;;;;;;;;;;;;;;;;;;;;;
2022/01/22 14:00:06;;;;;;;3.20;0.80;;;;;;;13.65;23.71;93134.94;5034348;28;20040;-90
2022/01/22 14:05:52;;;;;;;2.92;1.30;;;;;;;12.64;24.44;93102.75;5014965;28;20033;-90
2022/01/22 14:08:37;;;;;;;1.80;1.00;;;;;;;13.15;24.72;93121.50;5001141;28;20037;-91
2022/01/22 14:11:15;;;;;;;2.10;0.82;;;;;;;13.24;23.75;93112.69;4997545;28;20390;-90
2022/01/22 14:14:08;;;;;;;1.13;0.80;;;;;;;13.22;24.24;93149.00;5017268;28;20052;-90
2022/01/22 14:16:50;;;;;;;2.13;1.20;;;;;;;13.65;24.44;93151.50;5033770;28;20072;-90
2022/01/22 14:19:39;;;;;;;2.08;1.20;;;;;;;13.25;23.74;93116.09;5022438;28;20038;-90
2022/01/22 14:22:17;;;;;;;2.47;1.05;;;;;;;12.92;24.40;93113.41;5026889;28;20182;-91
2022/01/22 14:24:48;;;;;;;1.33;0.82;;;;;;;12.57;24.52;93112.84;5014900;28;20025;-90
2022/01/22 14:27:23;;;;;;;0.95;0.80;;;;;;;12.49;24.83;93129.22;5011934;28;20037;-90
2022/01/22 14:30:38;;;;;;;;;;;;;;;;;;;;;
2022/01/22 14:33:36;;;;;;;;;;;;;;;;;;;;;
2022/01/22 15:13:24;;;;;;;0.55;0.43;;;;;;;13.81;24.34;93215.19;4976969;23;20045;-74
2022/01/22 15:15:58;;;;;;;0.73;0.50;;;;;;;13.84;23.11;93211.19;4997690;28;20412;-74
2022/01/22 15:19:13;;;;;;;0.38;0.38;;;;;;;13.98;23.67;93216.50;4999209;28;20372;-75
2022/01/22 15:21:13;;;;;;;0.57;0.50;;;;;;;14.00;23.55;93227.53;4996933;28;20069;-73
2022/01/22 15:23:39;;;;;;;0.43;0.40;;;;;;;13.36;24.40;93221.94;4995475;28;20042;-75
2022/01/22 15:26:06;;;;;;;0.40;0.40;;;;;;;12.62;25.49;93224.94;4993146;28;20042;-74
2022/01/22 15:28:42;;;;;;;0.73;0.47;;;;;;;11.94;26.27;93220.63;5013333;28;20036;-74
2022/01/22 15:31:16;;;;;;;2.92;1.35;;;;;;;11.51;26.94;93229.06;5003234;28;20187;-75
2022/01/22 15:33:53;;;;;;;0.68;0.50;;;;;;;11.28;27.44;93237.59;5015877;28;20045;-74
2022/01/22 15:36:19;;;;;;;0.88;0.60;;;;;;;11.07;27.55;93229.84;4993109;28;20050;-75
2022/01/22 15:38:44;;;;;;;0.57;0.47;;;;;;;10.96;27.63;93244.06;5011696;28;20040;-72
2022/01/22 15:41:10;;;;;;;1.15;0.60;;;;;;;10.81;28.28;93237.84;5024850;28;20042;-75
2022/01/22 15:43:36;;;;;;;0.77;0.50;;;;;;;10.74;28.12;93236.53;5000577;28;20033;-73
2022/01/22 15:46:01;;;;;;;1.13;0.82;;;;;;;10.54;28.51;93240.81;5003342;28;20042;-75
2022/01/22 15:48:29;;;;;;;0.40;0.40;;;;;;;10.38;28.71;93241.91;5006232;28;20050;-75
2022/01/22 15:50:55;;;;;;;0.45;0.45;;;;;;;10.27;29.22;93248.16;5002089;28;20038;-73
2022/01/22 15:53:21;;;;;;;0.50;0.50;;;;;;;10.16;29.53;93256.06;4995684;28;20574;-73
2022/01/22 15:55:50;;;;;;;3.83;0.50;;;;;;;10.04;29.25;93252.91;4998880;28;20073;-73
2022/01/22 15:58:17;;;;;;;0.50;0.50;;;;;;;9.90;29.79;93264.97;5028496;28;20035;-72
2022/01/22 16:00:43;;;;;;;0.73;0.57;;;;;;;9.98;29.70;93265.22;5019503;28;20116;-73
2022/01/22 16:03:10;;;;;;;0.82;0.55;;;;;;;9.75;30.79;93261.31;5009123;28;20045;-74
2022/01/22 16:05:39;;;;;;;7.10;2.00;;;;;;;9.63;30.42;93266.00;4994162;28;20030;-74
2022/01/22 16:08:05;;;;;;;1.13;0.65;;;;;;;9.54;30.67;93267.56;5009817;28;20436;-73
2022/01/22 16:10:30;;;;;;;0.80;0.50;;;;;;;9.48;30.45;93276.44;5010040;28;20155;-73
2022/01/22 16:12:56;;;;;;;1.27;0.68;;;;;;;9.35;30.61;93278.53;5009208;28;20033;-72
2022/01/22 16:15:22;;;;;;;0.40;0.40;;;;;;;9.25;31.50;93280.31;5009768;28;20053;-74
2022/01/22 16:17:49;;;;;;;0.63;0.52;;;;;;;9.22;31.44;93281.63;5013456;28;20042;-74
2022/01/22 16:20:14;;;;;;;0.90;0.55;;;;;;;9.15;31.55;93275.88;5000637;28;20495;-73
2022/01/22 16:22:40;;;;;;;0.70;0.60;;;;;;;9.06;31.39;93269.59;4993236;28;20030;-74
2022/01/22 16:25:06;;;;;;;0.60;0.57;;;;;;;9.01;31.88;93280.03;4971354;28;20046;-73
2022/01/22 16:27:33;;;;;;;1.00;0.70;;;;;;;8.95;31.90;93282.59;4990318;28;20403;-74
2022/01/22 16:29:59;;;;;;;2.83;1.20;;;;;;;8.87;32.19;93270.06;4998054;28;20513;-73
2022/01/22 16:32:27;;;;;;;39.00;15.23;;;;;;;8.78;32.52;93266.38;4995993;28;20026;-73
2022/01/22 16:34:55;;;;;;;5.20;2.15;;;;;;;8.77;32.48;93275.22;5013197;28;20034;-73
2022/01/22 16:37:21;;;;;;;9.38;4.70;;;;;;;8.75;32.22;93277.28;5012404;28;20057;-73
2022/01/22 16:39:48;;;;;;;4.10;2.00;;;;;;;8.65;32.79;93282.50;4995418;28;20101;-73
2022/01/22 16:42:17;;;;;;;1.75;0.88;;;;;;;8.57;32.92;93275.13;4997407;28;20026;-73
2022/01/22 16:55:01;;;;;;;0.55;0.38;;;;;;;8.18;34.08;93272.81;5016265;28;20050;-77
2022/01/22 16:57:31;;;;;;;0.40;0.40;;;;;;;8.18;34.19;93288.47;4999271;28;20488;-78
2022/01/22 17:00:01;;;;;;;0.85;0.50;;;;;;;8.10;34.26;93292.31;4998558;28;20052;-78
2022/01/22 17:02:32;;;;;;;2.35;0.85;;;;;;;8.12;33.86;93296.22;5006181;28;20488;-78
2022/01/22 17:05:06;;;;;;;0.93;0.60;;;;;;;8.11;34.18;93297.28;5020149;28;20274;-78
2022/01/22 17:07:39;;;;;;;0.40;0.40;;;;;;;8.04;34.19;93288.88;5016144;28;20037;-77
2022/01/22 17:10:16;;;;;;;3.13;0.60;;;;;;;8.01;34.32;93293.81;5004597;28;20514;-78
2022/01/22 17:15:27;;;;;;;0.75;0.50;;;;;;;7.93;34.82;93298.44;4996898;28;20050;-76
2022/01/22 17:17:54;;;;;;;0.40;0.40;;;;;;;7.96;35.00;93306.81;5012985;28;20034;-78
2022/01/22 17:20:20;;;;;;;0.70;0.50;;;;;;;7.96;34.95;93302.38;4987027;28;20251;-79
2022/01/22 17:22:45;;;;;;;0.40;0.40;;;;;;;7.99;34.86;93309.69;5014219;28;20033;-78
2022/01/22 17:25:11;;;;;;;0.50;0.50;;;;;;;8.04;34.88;93316.78;4997572;28;20037;-78
2022/01/22 17:27:37;;;;;;;0.40;0.40;;;;;;;7.91;35.18;93316.16;4984572;28;20057;-78
2022/01/22 17:30:04;;;;;;;0.40;0.40;;;;;;;7.84;35.13;93325.22;4979473;28;20114;-78
2022/01/22 17:32:30;;;;;;;0.63;0.52;;;;;;;7.81;35.33;93325.72;5015707;28;20109;-79
2022/01/22 17:34:56;;;;;;;0.43;0.40;;;;;;;7.76;35.46;93323.84;5014754;28;20157;-78
2022/01/22 17:37:21;;;;;;;0.93;0.50;;;;;;;7.74;35.61;93319.91;5015257;28;20022;-79
2022/01/22 17:39:47;;;;;;;1.77;0.70;;;;;;;7.78;35.63;93332.22;5000993;28;20030;-79
2022/01/22 17:42:18;;;;;;;0.43;0.43;;;;;;;7.76;35.80;93333.50;5006046;28;20033;-79
2022/01/22 17:44:49;;;;;;;1.00;0.50;;;;;;;7.68;36.20;93340.72;5016521;28;20116;-76
2022/01/22 17:47:20;;;;;;;0.73;0.50;;;;;;;7.68;35.92;93338.13;5034153;28;20073;-77
2022/01/22 17:49:46;;;;;;;1.88;0.43;;;;;;;7.70;35.99;93343.88;5017759;28;20042;-79
2022/01/22 17:52:12;;;;;;;0.63;0.57;;;;;;;7.68;36.24;93345.94;5006115;28;20034;-77
2022/01/22 17:54:39;;;;;;;1.13;0.73;;;;;;;7.69;36.24;93350.13;5013281;28;20030;-79
2022/01/22 17:57:05;;;;;;;0.50;0.50;;;;;;;7.68;36.39;93364.19;5019317;28;20025;-78
2022/01/22 17:59:31;;;;;;;1.80;0.73;;;;;;;7.72;36.49;93361.84;5032818;28;20061;-78
2022/01/22 18:01:57;;;;;;;0.55;0.50;;;;;;;7.63;36.51;93343.31;4981313;28;20053;-81
2022/01/22 18:04:23;;;;;;;0.50;0.50;;;;;;;7.69;36.14;93357.16;5013949;28;20038;-80
2022/01/22 18:06:49;;;;;;;0.40;0.40;;;;;;;7.74;36.45;93367.63;5019377;28;20037;-79
2022/01/22 18:09:36;;;;;;;0.63;0.50;;;;;;;7.75;36.38;93377.03;5002381;28;20065;-80
2022/01/22 18:12:03;;;;;;;0.40;0.40;;;;;;;7.83;36.19;93375.78;5000013;28;20053;-80
2022/01/22 18:14:29;;;;;;;0.70;0.50;;;;;;;7.75;36.49;93376.25;4974167;28;20105;-78
2022/01/22 18:16:55;;;;;;;0.57;0.40;;;;;;;7.76;36.29;93383.78;5012808;28;20479;-79
2022/01/22 18:19:21;;;;;;;0.40;0.40;;;;;;;7.70;36.58;93382.16;5001382;28;20129;-80
2022/01/22 18:21:51;;;;;;;2.03;0.80;;;;;;;7.66;36.47;93381.09;4999804;28;20070;-79
2022/01/22 18:24:17;;;;;;;0.45;0.45;;;;;;;7.68;36.66;93374.63;4993810;28;20121;-78
2022/01/22 18:26:43;;;;;;;0.95;0.63;;;;;;;7.66;36.52;93374.06;5004682;28;20527;-78
2022/01/22 18:29:14;;;;;;;0.75;0.60;;;;;;;7.72;36.73;93383.53;4991113;28;20070;-78
2022/01/22 18:31:40;;;;;;;0.75;0.50;;;;;;;7.66;36.41;93366.25;5013005;28;20073;-78
2022/01/22 18:34:06;;;;;;;0.40;0.40;;;;;;;7.59;36.49;93364.84;4985544;28;20034;-78
2022/01/22 18:36:34;;;;;;;0.90;0.60;;;;;;;7.59;36.88;93370.06;4975542;28;20126;-78
2022/01/22 18:39:02;;;;;;;0.40;0.40;;;;;;;7.54;36.61;93373.41;4994882;28;20443;-78
2022/01/22 18:41:28;;;;;;;0.30;0.30;;;;;;;7.48;36.84;93369.97;5005739;28;20077;-78
2022/01/22 18:43:54;;;;;;;1.20;0.73;;;;;;;7.50;36.69;93372.34;4998688;28;20103;-78
2022/01/22 18:46:20;;;;;;;0.50;0.50;;;;;;;7.43;36.94;93364.72;4982063;28;20132;-78
2022/01/22 18:48:46;;;;;;;0.88;0.50;;;;;;;7.43;37.09;93363.91;4992270;28;20061;-78
2022/01/22 18:51:12;;;;;;;1.52;0.70;;;;;;;7.43;36.89;93371.72;5007268;28;20034;-78
2022/01/22 18:53:38;;;;;;;6.63;0.93;;;;;;;7.52;36.74;93370.28;5002972;28;20038;-78
2022/01/22 18:56:05;;;;;;;1.02;0.55;;;;;;;7.48;36.64;93366.59;4977351;28;20045;-78
2022/01/22 18:58:33;;;;;;;0.65;0.52;;;;;;;7.44;37.00;93374.09;4988816;28;20113;-78
2022/01/22 19:01:01;;;;;;;0.40;0.40;;;;;;;7.41;37.00;93364.19;5001241;28;20038;-78
2022/01/22 19:03:28;;;;;;;0.80;0.60;;;;;;;7.38;36.83;93358.66;4998761;28;20038;-78
2022/01/22 19:05:54;;;;;;;2.60;1.05;;;;;;;7.44;36.76;93368.09;4986379;28;20041;-78
2022/01/22 19:08:19;;;;;;;2.47;0.90;;;;;;;7.44;37.06;93374.09;4962292;28;20035;-78
2022/01/22 19:10:45;;;;;;;0.57;0.52;;;;;;;7.39;36.77;93374.06;4990416;28;20026;-78
2022/01/22 19:13:11;;;;;;;3.97;0.88;;;;;;;7.52;36.50;93375.50;5003591;28;20034;-78
2022/01/22 19:15:37;;;;;;;0.60;0.60;;;;;;;7.40;37.00;93373.00;4993676;28;20527;-78
2022/01/22 19:18:04;;;;;;;3.97;0.88;;;;;;;7.56;36.78;93381.78;4999772;28;20042;-80
2022/01/22 19:20:33;;;;;;;2.05;0.80;;;;;;;7.60;36.65;93377.66;5009591;28;20053;-78
2022/01/22 19:25:46;;;;;;;1.42;0.68;;;;;;;7.67;36.50;93383.44;5017488;28;20041;-78
2022/01/22 19:28:13;;;;;;;;;;;;;;;7.72;36.47;93386.13;4993680;28;20144;-78
2022/01/22 19:30:45;;;;;;;4.10;0.80;;;;;;;7.80;36.39;93386.72;5030771;28;19928;-78
2022/01/22 19:33:14;;;;;;;5.82;0.93;;;;;;;7.86;36.17;93393.56;4996211;28;20034;-78
2022/01/22 19:35:49;;;;;;;5.75;0.95;;;;;;;7.81;36.45;93385.66;5014457;28;20029;-78
2022/01/22 19:38:21;;;;;;;4.65;0.75;;;;;;;7.82;36.32;93384.66;5013515;28;20128;-78
2022/01/22 19:40:48;;;;;;;3.72;1.23;;;;;;;7.96;35.88;93385.81;5029303;28;20026;-78
2022/01/22 19:43:17;;;;;;;4.00;0.90;;;;;;;7.93;35.95;93389.69;5019697;28;20049;-78
2022/01/22 19:45:45;;;;;;;3.08;0.82;;;;;;;8.08;35.62;93396.88;5011971;28;20104;-78
2022/01/22 19:48:12;;;;;;;3.45;0.75;;;;;;;8.01;36.00;93396.28;5033374;28;20060;-78
2022/01/22 19:50:41;;;;;;;6.13;1.10;;;;;;;7.99;35.92;93397.56;5000163;28;20034;-78
2022/01/22 19:53:10;;;;;;;8.23;1.30;;;;;;;8.05;35.85;93392.16;5027491;28;20037;-78